Time;durP1;ratioP1;P1;durP2;ratioP2;P2;SDS_P1;SDS_P2;PMS_P1;PMS_P2;Temp;Humidity;BMP_temperature;BMP_pressure;BME280_temperature;BME280_humidity;BME280_pressure;Samples;Min_cycle;Max_cycle;Signal;HPM_P1;HPM_P2
2023/02/05 00:01:53;;;;;;;2.03;1.40;;;;;;;;;;5012842;28;20347;-62
2023/02/05 00:04:19;;;;;;;1.75;1.40;;;;;;;;;;5013591;28;20166;-62
2023/02/05 00:06:45;;;;;;;3.25;1.25;;;;;;;;;;5013175;28;20246;-63
2023/02/05 00:09:12;;;;;;;1.65;1.20;;;;;;;;;;5013026;28;20171;-62
2023/02/05 00:11:38;;;;;;;2.83;1.50;;;;;;;;;;5012894;28;20178;-62
2023/02/05 00:14:05;;;;;;;2.28;1.17;;;;;;;;;;5030919;28;20176;-63
2023/02/05 00:16:33;;;;;;;1.95;1.17;;;;;;;;;;5032147;28;20182;-63
2023/02/05 00:19:01;;;;;;;1.30;1.10;;;;;;;;;;5028663;28;20242;-63
2023/02/05 00:21:27;;;;;;;2.35;1.33;;;;;;;;;;5026285;28;20202;-62
2023/02/05 00:23:53;;;;;;;2.53;1.52;;;;;;;;;;5023713;28;20209;-64
2023/02/05 00:26:20;;;;;;;4.35;1.23;;;;;;;;;;5020429;28;20201;-62
2023/02/05 00:28:46;;;;;;;4.10;1.27;;;;;;;;;;5019310;28;20193;-62
2023/02/05 00:31:17;;;;;;;2.53;1.25;;;;;;;;;;5013916;28;20621;-61
2023/02/05 00:33:43;;;;;;;2.75;1.27;;;;;;;;;;5013141;28;20208;-61
2023/02/05 00:36:09;;;;;;;2.58;1.45;;;;;;;;;;5012940;28;20230;-63
2023/02/05 00:38:35;;;;;;;2.25;1.27;;;;;;;;;;5015789;28;20174;-62
2023/02/05 00:41:02;;;;;;;2.20;1.33;;;;;;;;;;5026701;28;20201;-62
2023/02/05 00:43:29;;;;;;;2.80;1.40;;;;;;;;;;5028166;28;20202;-61
2023/02/05 00:45:55;;;;;;;2.03;1.30;;;;;;;;;;5030267;28;20162;-62
2023/02/05 00:48:21;;;;;;;3.28;1.50;;;;;;;;;;5029853;28;20226;-62
2023/02/05 00:50:51;;;;;;;1.75;1.33;;;;;;;;;;5021799;28;20194;-62
2023/02/05 00:53:17;;;;;;;2.15;1.33;;;;;;;;;;5021830;28;20171;-63
2023/02/05 00:55:43;;;;;;;3.35;1.23;;;;;;;;;;5022716;28;20174;-63
2023/02/05 00:58:09;;;;;;;2.65;1.70;;;;;;;;;;5022666;28;20239;-61
2023/02/05 01:00:35;;;;;;;1.80;1.30;;;;;;;;;;5020328;28;20210;-63
2023/02/05 01:03:01;;;;;;;3.55;1.40;;;;;;;;;;5021578;28;20665;-63
2023/02/05 01:05:29;;;;;;;2.90;1.48;;;;;;;;;;5020185;28;20162;-63
2023/02/05 01:07:55;;;;;;;1.67;1.40;;;;;;;;;;5019024;28;20175;-62
2023/02/05 01:10:21;;;;;;;2.58;1.30;;;;;;;;;;5018273;28;20390;-62
2023/02/05 01:12:48;;;;;;;1.88;1.23;;;;;;;;;;5014437;28;20294;-61
2023/02/05 01:15:14;;;;;;;2.38;1.40;;;;;;;;;;5016190;28;20163;-61
2023/02/05 01:17:40;;;;;;;1.85;1.00;;;;;;;;;;5016164;28;20185;-61
2023/02/05 01:20:07;;;;;;;3.58;1.38;;;;;;;;;;5017428;28;20163;-62
2023/02/05 01:22:33;;;;;;;2.30;1.20;;;;;;;;;;5015490;28;20556;-60
2023/02/05 01:24:59;;;;;;;1.38;0.98;;;;;;;;;;5015321;28;20254;-60
2023/02/05 01:27:25;;;;;;;2.00;1.55;;;;;;;;;;5015343;28;20163;-63
2023/02/05 01:29:51;;;;;;;2.35;1.10;;;;;;;;;;5014805;28;20162;-63
2023/02/05 01:32:17;;;;;;;1.45;1.10;;;;;;;;;;5016270;28;20227;-60
2023/02/05 01:34:44;;;;;;;2.33;1.20;;;;;;;;;;5015064;28;20174;-63
2023/02/05 01:37:10;;;;;;;2.50;1.27;;;;;;;;;;5014795;28;20604;-63
2023/02/05 01:39:37;;;;;;;2.63;1.30;;;;;;;;;;5015049;28;20174;-61
2023/02/05 01:42:04;;;;;;;2.55;1.38;;;;;;;;;;5015149;28;20209;-62
2023/02/05 01:44:30;;;;;;;2.53;1.30;;;;;;;;;;5014850;28;20170;-61
2023/02/05 01:46:56;;;;;;;2.20;1.35;;;;;;;;;;5014694;28;20620;-62
2023/02/05 01:49:22;;;;;;;2.28;1.10;;;;;;;;;;5014393;28;20171;-64
2023/02/05 01:51:49;;;;;;;1.00;0.82;;;;;;;;;;5014990;28;20177;-64
2023/02/05 01:54:16;;;;;;;2.22;1.27;;;;;;;;;;5014754;28;20181;-61
2023/02/05 01:56:48;;;;;;;2.55;1.23;;;;;;;;;;5014951;28;20166;-61
2023/02/05 01:59:16;;;;;;;1.70;1.17;;;;;;;;;;5014535;28;20170;-60
2023/02/05 02:01:42;;;;;;;3.33;1.80;;;;;;;;;;5015036;28;20545;-64
2023/02/05 02:04:09;;;;;;;2.22;1.15;;;;;;;;;;5014395;28;20170;-62
2023/02/05 02:06:36;;;;;;;1.77;1.00;;;;;;;;;;5014875;28;20170;-63
2023/02/05 02:09:03;;;;;;;1.48;1.02;;;;;;;;;;5014261;28;20627;-63
2023/02/05 02:11:32;;;;;;;1.75;1.40;;;;;;;;;;5014423;28;20177;-62
2023/02/05 02:14:00;;;;;;;2.33;1.15;;;;;;;;;;5014616;28;20248;-62
2023/02/05 02:16:27;;;;;;;3.60;0.95;;;;;;;;;;5014884;28;20216;-62
2023/02/05 02:18:54;;;;;;;2.03;1.00;;;;;;;;;;5013339;28;20184;-63
2023/02/05 02:21:31;;;;;;;2.67;1.27;;;;;;;;;;5014523;28;20186;-63
2023/02/05 02:24:07;;;;;;;4.97;1.25;;;;;;;;;;5014506;28;20231;-62
2023/02/05 02:26:42;;;;;;;3.70;1.10;;;;;;;;;;5014580;28;20162;-62
2023/02/05 02:29:12;;;;;;;2.40;1.30;;;;;;;;;;5014126;28;20170;-59
2023/02/05 02:31:47;;;;;;;4.13;1.17;;;;;;;;;;5014321;28;20209;-60
2023/02/05 02:34:17;;;;;;;2.15;1.20;;;;;;;;;;5014807;28;20583;-62
2023/02/05 02:36:49;;;;;;;1.65;1.10;;;;;;;;;;5014768;28;20182;-61
2023/02/05 02:39:30;;;;;;;3.05;1.60;;;;;;;;;;5014241;28;20171;-62
2023/02/05 02:42:15;;;;;;;1.45;0.98;;;;;;;;;;5013420;28;20220;-63
2023/02/05 02:44:40;;;;;;;2.63;1.33;;;;;;;;;;5013878;28;20486;-63
2023/02/05 02:47:12;;;;;;;2.33;1.25;;;;;;;;;;5014727;28;20177;-63
2023/02/05 02:49:43;;;;;;;1.52;0.98;;;;;;;;;;5014135;28;20157;-62
2023/02/05 02:52:12;;;;;;;2.40;1.20;;;;;;;;;;5014187;28;20181;-63
2023/02/05 02:54:40;;;;;;;3.35;1.40;;;;;;;;;;5013675;28;20181;-63
2023/02/05 02:57:07;;;;;;;1.48;1.23;;;;;;;;;;5014313;28;20509;-63
2023/02/05 02:59:34;;;;;;;2.00;1.08;;;;;;;;;;5013701;28;20190;-62
2023/02/05 03:02:03;;;;;;;3.85;1.20;;;;;;;;;;5012560;28;20679;-64
2023/02/05 03:04:43;;;;;;;2.72;1.30;;;;;;;;;;5013836;28;20166;-62
2023/02/05 03:07:12;;;;;;;2.20;1.17;;;;;;;;;;5013568;28;20180;-63
2023/02/05 03:09:45;;;;;;;1.17;1.08;;;;;;;;;;5015294;28;20639;-63
2023/02/05 03:12:11;;;;;;;2.20;1.38;;;;;;;;;;5031966;28;20166;-63
2023/02/05 03:14:38;;;;;;;3.50;1.20;;;;;;;;;;5031693;28;20302;-63
2023/02/05 03:17:04;;;;;;;2.25;1.05;;;;;;;;;;5024739;28;20213;-63
2023/02/05 03:19:30;;;;;;;3.20;1.20;;;;;;;;;;5014108;28;20170;-60
2023/02/05 03:21:59;;;;;;;3.08;1.10;;;;;;;;;;5013515;28;20201;-63
2023/02/05 03:24:25;;;;;;;3.95;1.17;;;;;;;;;;5013679;28;20231;-61
2023/02/05 03:26:51;;;;;;;1.35;1.00;;;;;;;;;;5013560;28;20206;-63
2023/02/05 03:29:25;;;;;;;1.85;1.20;;;;;;;;;;5013625;28;20235;-62
2023/02/05 03:32:07;;;;;;;1.40;1.13;;;;;;;;;;5019534;28;20162;-63
2023/02/05 03:34:51;;;;;;;2.05;1.05;;;;;;;;;;5021843;28;20194;-63
2023/02/05 03:37:38;;;;;;;1.60;1.20;;;;;;;;;;5020264;28;20166;-63
2023/02/05 03:40:10;;;;;;;1.23;1.13;;;;;;;;;;5016214;28;20208;-63
2023/02/05 03:42:45;;;;;;;2.22;1.08;;;;;;;;;;5017595;28;20186;-63
2023/02/05 03:45:10;;;;;;;2.35;1.10;;;;;;;;;;5020033;28;20470;-62
2023/02/05 03:47:36;;;;;;;1.80;1.15;;;;;;;;;;5017008;28;20204;-62
2023/02/05 03:50:02;;;;;;;2.20;1.50;;;;;;;;;;5013601;28;20202;-61
2023/02/05 03:52:35;;;;;;;1.92;1.10;;;;;;;;;;5013337;28;20194;-62
2023/02/05 03:55:09;;;;;;;1.98;1.27;;;;;;;;;;5013324;28;20182;-61
2023/02/05 03:57:42;;;;;;;1.48;1.08;;;;;;;;;;5013939;28;20155;-60
2023/02/05 04:00:09;;;;;;;2.70;1.20;;;;;;;;;;5012859;28;20186;-63
2023/02/05 04:02:35;;;;;;;2.03;1.27;;;;;;;;;;5013329;28;20206;-63
2023/02/05 04:05:01;;;;;;;5.75;1.58;;;;;;;;;;5014125;28;20176;-62
2023/02/05 04:07:27;;;;;;;1.90;1.15;;;;;;;;;;5013607;28;20167;-61
2023/02/05 04:09:53;;;;;;;4.35;1.33;;;;;;;;;;5012898;28;20194;-62
2023/02/05 04:12:19;;;;;;;2.58;1.50;;;;;;;;;;5012591;28;20682;-61
2023/02/05 04:14:45;;;;;;;3.70;1.58;;;;;;;;;;5012887;28;20519;-63
2023/02/05 04:17:11;;;;;;;4.13;1.38;;;;;;;;;;5013153;28;20182;-62
2023/02/05 04:19:40;;;;;;;2.33;1.60;;;;;;;;;;5012670;28;20220;-61
2023/02/05 04:22:06;;;;;;;1.92;1.10;;;;;;;;;;5012713;28;20594;-62
2023/02/05 04:24:32;;;;;;;2.60;1.02;;;;;;;;;;5012630;28;20180;-61
2023/02/05 04:26:58;;;;;;;2.50;1.10;;;;;;;;;;5012847;28;20174;-62
2023/02/05 04:29:25;;;;;;;1.65;1.27;;;;;;;;;;5012724;28;20166;-62
2023/02/05 04:31:51;;;;;;;1.70;0.98;;;;;;;;;;5013057;28;20158;-62
2023/02/05 04:34:17;;;;;;;2.58;1.20;;;;;;;;;;5012533;28;20597;-62
2023/02/05 04:36:43;;;;;;;1.77;1.23;;;;;;;;;;5012208;28;20174;-63
2023/02/05 04:39:09;;;;;;;1.83;1.35;;;;;;;;;;5012764;28;20262;-63
2023/02/05 04:41:35;;;;;;;1.88;1.17;;;;;;;;;;5012386;28;20667;-61
2023/02/05 04:44:01;;;;;;;2.72;1.13;;;;;;;;;;5012516;28;20581;-60
2023/02/05 04:46:27;;;;;;;1.80;1.15;;;;;;;;;;5012739;28;20615;-61
2023/02/05 04:48:53;;;;;;;1.92;1.20;;;;;;;;;;5012480;28;20589;-61
2023/02/05 04:51:19;;;;;;;2.13;1.13;;;;;;;;;;5012360;28;20177;-59
2023/02/05 04:53:45;;;;;;;1.95;1.20;;;;;;;;;;5012505;28;20177;-60
2023/02/05 04:56:13;;;;;;;1.48;1.27;;;;;;;;;;5012348;28;20170;-60
2023/02/05 04:58:39;;;;;;;2.03;1.33;;;;;;;;;;5012492;28;20479;-62
2023/02/05 05:01:05;;;;;;;1.50;1.08;;;;;;;;;;5012298;28;20281;-61
2023/02/05 05:03:31;;;;;;;2.45;1.23;;;;;;;;;;5012486;28;20616;-62
2023/02/05 05:06:02;;;;;;;4.15;1.50;;;;;;;;;;5013063;28;20171;-62
2023/02/05 05:08:28;;;;;;;2.10;1.10;;;;;;;;;;5012548;28;20265;-62
2023/02/05 05:10:55;;;;;;;1.85;1.30;;;;;;;;;;5012380;28;20219;-63
2023/02/05 05:13:21;;;;;;;1.85;1.15;;;;;;;;;;5012127;28;20661;-59
2023/02/05 05:15:54;;;;;;;2.90;1.42;;;;;;;;;;5012565;28;20265;-62
2023/02/05 05:18:20;;;;;;;2.85;1.10;;;;;;;;;;5012539;28;20170;-61
2023/02/05 05:20:46;;;;;;;2.50;1.45;;;;;;;;;;5011963;28;20205;-64
2023/02/05 05:23:13;;;;;;;3.20;1.48;;;;;;;;;;5011852;28;20245;-63
2023/02/05 05:25:42;;;;;;;2.33;1.25;;;;;;;;;;5013990;28;20166;-63
2023/02/05 05:28:08;;;;;;;3.30;1.42;;;;;;;;;;5015353;28;20534;-63
2023/02/05 05:30:34;;;;;;;3.28;1.40;;;;;;;;;;5015001;28;20225;-63
2023/02/05 05:33:00;;;;;;;3.80;1.55;;;;;;;;;;5015030;28;20466;-62
2023/02/05 05:35:27;;;;;;;2.13;1.40;;;;;;;;;;5015071;28;20165;-62
2023/02/05 05:37:55;;;;;;;2.88;1.10;;;;;;;;;;5015089;28;20170;-63
2023/02/05 05:45:53;;;;;;;1.92;1.10;;;;;;;;;;5015198;28;20234;-62
2023/02/05 05:48:19;;;;;;;1.92;1.25;;;;;;;;;;5014668;28;20556;-61
2023/02/05 05:50:45;;;;;;;2.42;1.00;;;;;;;;;;5014881;28;20171;-63
2023/02/05 05:53:11;;;;;;;2.40;1.48;;;;;;;;;;5015334;28;20265;-63
2023/02/05 05:55:37;;;;;;;3.88;1.10;;;;;;;;;;5014815;28;20225;-61
2023/02/05 05:58:03;;;;;;;2.13;1.10;;;;;;;;;;5014839;28;20171;-63
2023/02/05 06:00:29;;;;;;;2.35;0.95;;;;;;;;;;5014866;28;20487;-62
2023/02/05 06:02:55;;;;;;;1.70;1.17;;;;;;;;;;5013987;28;20269;-62
2023/02/05 06:05:21;;;;;;;1.48;1.17;;;;;;;;;;5020146;28;20178;-61
2023/02/05 06:07:48;;;;;;;3.38;1.13;;;;;;;;;;5031992;28;20162;-63
2023/02/05 06:10:14;;;;;;;1.90;1.23;;;;;;;;;;5032365;28;20185;-63
2023/02/05 06:12:40;;;;;;;4.35;1.20;;;;;;;;;;5030793;28;20172;-63
2023/02/05 06:15:06;;;;;;;2.42;1.30;;;;;;;;;;5025278;28;20186;-62
2023/02/05 06:17:32;;;;;;;5.18;1.38;;;;;;;;;;5022195;28;20178;-62
2023/02/05 06:19:58;;;;;;;1.40;1.00;;;;;;;;;;5016561;28;20173;-63
2023/02/05 06:22:24;;;;;;;1.65;1.00;;;;;;;;;;5018316;28;20194;-63
2023/02/05 06:24:50;;;;;;;3.13;1.00;;;;;;;;;;5022222;28;20174;-63
2023/02/05 06:27:15;;;;;;;1.77;1.08;;;;;;;;;;5021904;28;20166;-62
2023/02/05 06:29:41;;;;;;;2.88;0.90;;;;;;;;;;5021255;28;20237;-61
2023/02/05 06:32:07;;;;;;;4.05;1.30;;;;;;;;;;5017104;28;20170;-62
2023/02/05 06:34:33;;;;;;;1.63;1.10;;;;;;;;;;5016976;28;20327;-62
2023/02/05 06:36:59;;;;;;;1.40;0.85;;;;;;;;;;5015851;28;20185;-62
2023/02/05 06:39:25;;;;;;;2.65;1.17;;;;;;;;;;5016883;28;20260;-63
2023/02/05 06:41:51;;;;;;;2.70;1.20;;;;;;;;;;5016633;28;20186;-61
2023/02/05 06:44:17;;;;;;;2.40;1.20;;;;;;;;;;5015317;28;20174;-61
2023/02/05 06:46:43;;;;;;;3.40;1.05;;;;;;;;;;5014098;28;20177;-59
2023/02/05 06:49:09;;;;;;;4.10;1.38;;;;;;;;;;5014133;28;20209;-61
2023/02/05 06:51:35;;;;;;;2.88;1.30;;;;;;;;;;5014728;28;20174;-62
2023/02/05 06:54:01;;;;;;;2.08;1.00;;;;;;;;;;5013791;28;20253;-62
2023/02/05 06:56:27;;;;;;;1.27;1.02;;;;;;;;;;5014213;28;20170;-62
2023/02/05 06:58:53;;;;;;;3.05;1.13;;;;;;;;;;5013770;28;20222;-63
2023/02/05 07:01:19;;;;;;;2.58;1.13;;;;;;;;;;5015448;28;20212;-61
2023/02/05 07:03:47;;;;;;;3.15;1.58;;;;;;;;;;5014079;28;20181;-61
2023/02/05 07:06:13;;;;;;;3.45;1.13;;;;;;;;;;5013963;28;20177;-62
2023/02/05 07:08:39;;;;;;;3.13;1.50;;;;;;;;;;5013878;28;20174;-63
2023/02/05 07:11:05;;;;;;;2.55;1.05;;;;;;;;;;5013991;28;20261;-62
2023/02/05 07:13:31;;;;;;;1.73;1.10;;;;;;;;;;5013839;28;20162;-62
2023/02/05 07:15:57;;;;;;;3.00;1.23;;;;;;;;;;5017459;28;20193;-62
2023/02/05 07:18:23;;;;;;;2.40;1.25;;;;;;;;;;5027990;28;20174;-63
2023/02/05 07:20:49;;;;;;;1.77;1.45;;;;;;;;;;5026782;28;20194;-63
2023/02/05 07:23:15;;;;;;;1.90;1.23;;;;;;;;;;5025521;28;20174;-63
2023/02/05 07:25:41;;;;;;;4.32;1.65;;;;;;;;;;5025226;28;20173;-63
2023/02/05 07:28:08;;;;;;;4.50;1.40;;;;;;;;;;5023034;28;20211;-63
2023/02/05 07:30:35;;;;;;;4.32;1.10;;;;;;;;;;5021494;28;20269;-62
2023/02/05 07:33:02;;;;;;;2.20;1.08;;;;;;;;;;5017266;28;20266;-63
2023/02/05 07:35:28;;;;;;;1.42;0.90;;;;;;;;;;5017105;28;20178;-62
2023/02/05 07:37:54;;;;;;;1.67;1.25;;;;;;;;;;5013330;28;20170;-62
2023/02/05 07:40:20;;;;;;;1.40;1.00;;;;;;;;;;5013139;28;20254;-62
2023/02/05 07:42:46;;;;;;;2.78;1.23;;;;;;;;;;5013063;28;20182;-63
2023/02/05 07:45:12;;;;;;;3.03;1.30;;;;;;;;;;5013194;28;20647;-63
2023/02/05 07:47:38;;;;;;;2.28;1.10;;;;;;;;;;5012376;28;20170;-62
2023/02/05 07:50:05;;;;;;;1.30;0.95;;;;;;;;;;5012880;28;20258;-64
2023/02/05 07:52:31;;;;;;;2.05;1.10;;;;;;;;;;5013145;28;20207;-63
2023/02/05 07:54:57;;;;;;;2.88;1.45;;;;;;;;;;5012868;28;20262;-63
2023/02/05 07:57:23;;;;;;;2.10;1.23;;;;;;;;;;5012603;28;20173;-63
2023/02/05 07:59:49;;;;;;;2.17;1.17;;;;;;;;;;5012542;28;20182;-63
2023/02/05 08:02:15;;;;;;;3.65;1.40;;;;;;;;;;5012894;28;20194;-62
2023/02/05 08:04:41;;;;;;;1.80;1.20;;;;;;;;;;5012867;28;20222;-63
2023/02/05 08:07:07;;;;;;;1.42;1.00;;;;;;;;;;5013442;28;20594;-61
2023/02/05 08:09:33;;;;;;;1.30;0.98;;;;;;;;;;5015144;28;20170;-60
2023/02/05 08:11:59;;;;;;;1.42;1.10;;;;;;;;;;5013001;28;20482;-60
2023/02/05 08:14:25;;;;;;;3.17;1.10;;;;;;;;;;5012702;28;20170;-62
2023/02/05 08:16:51;;;;;;;2.20;1.02;;;;;;;;;;5011990;28;20277;-62
2023/02/05 08:19:17;;;;;;;4.10;0.88;;;;;;;;;;5012618;28;20219;-61
2023/02/05 08:21:43;;;;;;;1.50;0.77;;;;;;;;;;5012446;28;20202;-63
2023/02/05 08:24:10;;;;;;;2.70;1.33;;;;;;;;;;5013294;28;20311;-62
2023/02/05 08:26:36;;;;;;;1.73;1.17;;;;;;;;;;5013002;28;20194;-63
2023/02/05 08:29:02;;;;;;;1.00;0.90;;;;;;;;;;5012882;28;20177;-61
2023/02/05 08:31:28;;;;;;;2.35;1.00;;;;;;;;;;5029702;28;20190;-63
2023/02/05 08:33:56;;;;;;;2.97;1.10;;;;;;;;;;5027328;28;20179;-63
2023/02/05 08:36:22;;;;;;;2.50;1.30;;;;;;;;;;5025127;28;20182;-63
2023/02/05 08:38:48;;;;;;;0.90;0.88;;;;;;;;;;5021552;28;20174;-64
2023/02/05 08:41:14;;;;;;;2.90;1.10;;;;;;;;;;5015564;28;20230;-63
2023/02/05 08:43:45;;;;;;;1.33;1.08;;;;;;;;;;5015929;28;20234;-61
2023/02/05 08:46:12;;;;;;;2.45;0.80;;;;;;;;;;5014627;28;20674;-61
2023/02/05 08:48:38;;;;;;;2.40;1.15;;;;;;;;;;5016940;28;20212;-63
2023/02/05 08:51:04;;;;;;;2.05;1.02;;;;;;;;;;5017821;28;20178;-63
2023/02/05 08:53:31;;;;;;;1.20;1.00;;;;;;;;;;5019265;28;20170;-62
2023/02/05 08:55:58;;;;;;;3.05;0.77;;;;;;;;;;5014820;28;20178;-62
2023/02/05 08:58:25;;;;;;;1.13;0.90;;;;;;;;;;5012439;28;20545;-59
2023/02/05 09:00:51;;;;;;;1.50;1.00;;;;;;;;;;5015298;28;20221;-63
2023/02/05 09:03:17;;;;;;;1.88;1.00;;;;;;;;;;5015510;28;20166;-62
2023/02/05 09:05:43;;;;;;;2.55;1.13;;;;;;;;;;5015415;28;20170;-63
2023/02/05 09:08:10;;;;;;;1.02;0.85;;;;;;;;;;5015451;28;20166;-63
2023/02/05 09:10:36;;;;;;;1.20;0.80;;;;;;;;;;5015705;28;20241;-62
2023/02/05 09:13:03;;;;;;;3.22;1.17;;;;;;;;;;5015623;28;20190;-62
2023/02/05 09:15:29;;;;;;;2.65;1.23;;;;;;;;;;5015536;28;20166;-63
2023/02/05 09:17:55;;;;;;;1.27;0.88;;;;;;;;;;5015299;28;20231;-63
2023/02/05 09:20:21;;;;;;;2.17;0.98;;;;;;;;;;5014910;28;20562;-62
2023/02/05 09:22:47;;;;;;;1.70;0.98;;;;;;;;;;5015259;28;20194;-63
2023/02/05 09:25:13;;;;;;;1.23;0.80;;;;;;;;;;5015364;28;20185;-61
2023/02/05 09:27:39;;;;;;;1.75;0.73;;;;;;;;;;5015253;28;20193;-61
2023/02/05 09:30:06;;;;;;;2.00;0.88;;;;;;;;;;5015047;28;20170;-63
2023/02/05 09:32:32;;;;;;;2.30;0.88;;;;;;;;;;5014880;28;20608;-63
2023/02/05 09:34:58;;;;;;;1.65;1.00;;;;;;;;;;5015042;28;20171;-62
2023/02/05 09:37:24;;;;;;;1.65;0.80;;;;;;;;;;5015057;28;20274;-61
2023/02/05 09:39:50;;;;;;;1.45;1.05;;;;;;;;;;5014801;28;20185;-61
2023/02/05 09:42:18;;;;;;;1.30;0.80;;;;;;;;;;5014900;28;20201;-62
2023/02/05 09:45:11;;;;;;;1.77;0.90;;;;;;;;;;5014917;28;20224;-62
2023/02/05 09:47:41;;;;;;;1.10;0.68;;;;;;;;;;5014980;28;20151;-63
2023/02/05 09:50:15;;;;;;;1.55;0.90;;;;;;;;;;5014776;28;20222;-63
2023/02/05 09:52:49;;;;;;;1.67;0.90;;;;;;;;;;5014861;28;20471;-63
2023/02/05 09:55:37;;;;;;;1.02;0.60;;;;;;;;;;5014609;28;20151;-62
2023/02/05 09:58:07;;;;;;;1.13;0.80;;;;;;;;;;5014674;28;20535;-63
2023/02/05 10:00:36;;;;;;;1.17;0.80;;;;;;;;;;5013449;28;20197;-63
2023/02/05 10:03:15;;;;;;;1.77;0.80;;;;;;;;;;5014341;28;20172;-63
2023/02/05 10:05:48;;;;;;;2.25;0.90;;;;;;;;;;5014841;28;20633;-62
2023/02/05 10:08:19;;;;;;;1.55;0.77;;;;;;;;;;5015420;28;20159;-63
2023/02/05 10:10:48;;;;;;;1.58;0.80;;;;;;;;;;5014126;28;20196;-63
2023/02/05 10:13:14;;;;;;;3.38;1.05;;;;;;;;;;5014457;28;20166;-63
2023/02/05 10:15:59;;;;;;;3.13;1.00;;;;;;;;;;5014178;28;20566;-63
2023/02/05 10:18:40;;;;;;;1.10;0.80;;;;;;;;;;5014099;28;20586;-62
2023/02/05 10:21:18;;;;;;;2.05;1.02;;;;;;;;;;5013948;28;20190;-63
2023/02/05 10:23:50;;;;;;;1.48;0.93;;;;;;;;;;5014269;28;20170;-62
2023/02/05 10:26:19;;;;;;;1.85;0.82;;;;;;;;;;5014320;28;20192;-62
2023/02/05 10:29:02;;;;;;;2.35;0.70;;;;;;;;;;5013980;28;20601;-63
2023/02/05 10:31:34;;;;;;;1.70;0.98;;;;;;;;;;5013802;28;20639;-63
2023/02/05 10:34:15;;;;;;;2.17;0.88;;;;;;;;;;5013992;28;20496;-62
2023/02/05 10:36:41;;;;;;;2.20;0.70;;;;;;;;;;5013793;28;20577;-63
2023/02/05 10:39:12;;;;;;;1.15;0.55;;;;;;;;;;5014161;28;20262;-63
2023/02/05 10:41:39;;;;;;;2.67;0.73;;;;;;;;;;5013743;28;20190;-61
2023/02/05 10:44:41;;;;;;;1.00;0.60;;;;;;;;;;5014077;28;20488;-63
2023/02/05 10:47:11;;;;;;;1.20;0.60;;;;;;;;;;5095031;28;20190;-63
2023/02/05 10:49:47;;;;;;;0.85;0.65;;;;;;;;;;5094897;28;20479;-63
2023/02/05 10:52:15;;;;;;;1.35;0.70;;;;;;;;;;5095058;28;20160;-62
2023/02/05 10:54:42;;;;;;;1.55;0.88;;;;;;;;;;5094795;28;20172;-63
2023/02/05 10:57:15;;;;;;;1.35;0.80;;;;;;;;;;5094772;28;20655;-62
2023/02/05 10:59:49;;;;;;;1.58;0.80;;;;;;;;;;5094551;28;20198;-61
2023/02/05 11:02:15;;;;;;;2.47;0.65;;;;;;;;;;5094912;28;20360;-62
2023/02/05 11:04:43;;;;;;;1.33;0.80;;;;;;;;;;5094578;28;20550;-60
2023/02/05 11:07:11;;;;;;;2.58;0.98;;;;;;;;;;5094802;28;20164;-61
2023/02/05 11:09:37;;;;;;;2.67;0.80;;;;;;;;;;5094619;28;20590;-61
2023/02/05 11:12:05;;;;;;;1.55;0.70;;;;;;;;;;5094834;28;20177;-60
2023/02/05 11:14:35;;;;;;;1.30;0.60;;;;;;;;;;5095512;28;20217;-60
2023/02/05 11:17:16;;;;;;;1.10;0.70;;;;;;;;;;5095041;28;20558;-61
2023/02/05 11:19:56;;;;;;;1.10;0.68;;;;;;;;;;5094995;28;20254;-62
2023/02/05 11:22:30;;;;;;;1.08;0.70;;;;;;;;;;5012784;28;20190;-63
2023/02/05 11:25:10;;;;;;;1.70;0.93;;;;;;;;;;5013773;28;20167;-62
2023/02/05 11:27:37;;;;;;;1.38;0.68;;;;;;;;;;5013798;28;20233;-63
2023/02/05 11:30:38;;;;;;;1.67;0.80;;;;;;;;;;5018779;28;20174;-63
2023/02/05 11:33:25;;;;;;;2.13;0.80;;;;;;;;;;5114857;28;20182;-63
2023/02/05 11:35:59;;;;;;;1.42;0.80;;;;;;;;;;5113829;28;20190;-63
2023/02/05 11:38:43;;;;;;;2.25;0.80;;;;;;;;;;5107568;28;20171;-63
2023/02/05 11:41:10;;;;;;;0.82;0.70;;;;;;;;;;5102082;28;20218;-63
2023/02/05 11:43:53;;;;;;;1.83;0.90;;;;;;;;;;5099688;28;20186;-63
2023/02/05 11:46:20;;;;;;;0.82;0.60;;;;;;;;;;5097280;28;20170;-62
2023/02/05 11:48:49;;;;;;;1.00;0.70;;;;;;;;;;5095073;28;20190;-61
2023/02/05 11:51:26;;;;;;;0.93;0.68;;;;;;;;;;5094632;28;20163;-62
2023/02/05 11:53:57;;;;;;;1.33;0.60;;;;;;;;;;5094207;28;20186;-61
2023/02/05 11:56:24;;;;;;;1.38;0.73;;;;;;;;;;5077061;28;20709;-63
2023/02/05 11:59:00;;;;;;;1.35;0.77;;;;;;;;;;5094203;28;20545;-62
2023/02/05 12:01:29;;;;;;;0.80;0.68;;;;;;;;;;5093549;28;20297;-63
2023/02/05 12:03:59;;;;;;;1.30;0.60;;;;;;;;;;5077230;28;20621;-63
2023/02/05 12:06:31;;;;;;;3.17;1.00;;;;;;;;;;5072914;28;20178;-63
2023/02/05 12:08:57;;;;;;;1.40;0.70;;;;;;;;;;5012973;28;20554;-63
2023/02/05 12:11:23;;;;;;;0.80;0.70;;;;;;;;;;5013330;28;20230;-62
2023/02/05 12:13:49;;;;;;;1.73;0.77;;;;;;;;;;5013368;28;20639;-62
2023/02/05 12:16:26;;;;;;;2.03;0.90;;;;;;;;;;5012813;28;20537;-62
2023/02/05 12:18:55;;;;;;;1.25;0.70;;;;;;;;;;5013240;28;20158;-61
2023/02/05 12:21:46;;;;;;;0.95;0.80;;;;;;;;;;5012908;28;20202;-62
2023/02/05 12:24:17;;;;;;;1.30;0.77;;;;;;;;;;5012723;28;20589;-61
2023/02/05 12:26:44;;;;;;;1.75;0.82;;;;;;;;;;5012829;28;20250;-62
2023/02/05 12:29:31;;;;;;;1.83;0.90;;;;;;;;;;5013464;28;20189;-62
2023/02/05 12:32:13;;;;;;;1.92;0.80;;;;;;;;;;5012922;28;20155;-62
2023/02/05 12:34:58;;;;;;;3.13;0.90;;;;;;;;;;5016254;28;20251;-62
2023/02/05 12:37:27;;;;;;;3.10;1.05;;;;;;;;;;5020886;28;20177;-62
2023/02/05 12:39:54;;;;;;;1.38;0.90;;;;;;;;;;5022796;28;20196;-62
2023/02/05 12:42:29;;;;;;;1.55;0.80;;;;;;;;;;5020490;28;20206;-62
2023/02/05 12:44:55;;;;;;;1.13;0.82;;;;;;;;;;5021312;28;20193;-62
2023/02/05 12:47:32;;;;;;;1.90;1.10;;;;;;;;;;5019929;28;20166;-62
2023/02/05 12:49:58;;;;;;;1.63;1.10;;;;;;;;;;5018635;28;20529;-61
2023/02/05 12:52:27;;;;;;;1.67;0.90;;;;;;;;;;5017450;28;20303;-63
2023/02/05 12:54:53;;;;;;;1.50;1.05;;;;;;;;;;5016032;28;20181;-63
2023/02/05 12:57:21;;;;;;;0.93;0.82;;;;;;;;;;5016124;28;20178;-63
2023/02/05 12:59:47;;;;;;;1.20;0.90;;;;;;;;;;5014743;28;20681;-63
2023/02/05 13:02:20;;;;;;;1.30;0.90;;;;;;;;;;5016101;28;20186;-63
2023/02/05 13:04:49;;;;;;;1.65;1.15;;;;;;;;;;5015721;28;20609;-63
2023/02/05 13:07:18;;;;;;;1.67;1.08;;;;;;;;;;5015788;28;20264;-61
2023/02/05 13:09:47;;;;;;;1.50;0.88;;;;;;;;;;5015848;28;20181;-62
2023/02/05 13:12:15;;;;;;;1.52;1.10;;;;;;;;;;5015514;28;20231;-63
2023/02/05 13:14:53;;;;;;;0.80;0.73;;;;;;;;;;5015725;28;20171;-63
2023/02/05 13:17:22;;;;;;;1.25;0.90;;;;;;;;;;5015350;28;20573;-63
2023/02/05 13:19:53;;;;;;;1.95;0.95;;;;;;;;;;5015628;28;20184;-63
2023/02/05 13:31:04;;;;;;;1.60;1.05;;;;;;;;;;5015659;28;20166;-62
2023/02/05 13:33:30;;;;;;;1.35;0.90;;;;;;;;;;5015087;28;20171;-62
2023/02/05 13:35:56;;;;;;;2.03;1.05;;;;;;;;;;5015602;28;20200;-64
2023/02/05 13:38:40;;;;;;;2.08;1.08;;;;;;;;;;5015060;28;20184;-63
2023/02/05 13:41:09;;;;;;;1.50;0.85;;;;;;;;;;5015113;28;20516;-61
2023/02/05 13:43:46;;;;;;;3.08;1.63;;;;;;;;;;5015061;28;20180;-61
2023/02/05 13:46:30;;;;;;;1.10;0.90;;;;;;;;;;5014275;28;20158;-63
2023/02/05 13:49:04;;;;;;;1.90;0.90;;;;;;;;;;5015032;28;20227;-62
2023/02/05 13:51:49;;;;;;;1.35;0.80;;;;;;;;;;5014929;28;20158;-62
2023/02/05 13:54:34;;;;;;;1.58;1.17;;;;;;;;;;5014941;28;20258;-62
2023/02/05 13:57:18;;;;;;;1.77;1.42;;;;;;;;;;5014749;28;20173;-62
2023/02/05 13:59:51;;;;;;;1.23;0.85;;;;;;;;;;5014687;28;20261;-63
2023/02/05 14:02:36;;;;;;;2.65;1.20;;;;;;;;;;5014736;28;20179;-63
2023/02/05 14:05:04;;;;;;;2.50;1.10;;;;;;;;;;5014869;28;20537;-63
2023/02/05 14:07:31;;;;;;;1.88;1.17;;;;;;;;;;5014770;28;20178;-63
2023/02/05 14:09:59;;;;;;;3.72;1.50;;;;;;;;;;5014908;28;20166;-63
2023/02/05 14:12:38;;;;;;;1.65;1.08;;;;;;;;;;5014701;28;20253;-63
2023/02/05 14:15:17;;;;;;;2.88;1.05;;;;;;;;;;5014894;28;20714;-63
2023/02/05 14:17:43;;;;;;;1.95;1.15;;;;;;;;;;5014792;28;20174;-62
2023/02/05 14:20:24;;;;;;;2.00;1.30;;;;;;;;;;5020634;28;20159;-63
2023/02/05 14:22:54;;;;;;;2.63;1.30;;;;;;;;;;5028641;28;20190;-60
2023/02/05 14:25:40;;;;;;;2.03;1.30;;;;;;;;;;5027535;28;20159;-63
2023/02/05 14:28:15;;;;;;;1.42;1.10;;;;;;;;;;5022323;28;20169;-62
2023/02/05 14:30:50;;;;;;;1.80;1.20;;;;;;;;;;5014974;28;20169;-62
2023/02/05 14:33:29;;;;;;;2.28;1.27;;;;;;;;;;5014780;28;20177;-62
2023/02/05 14:35:57;;;;;;;2.75;1.38;;;;;;;;;;5014878;28;20166;-61
2023/02/05 14:38:32;;;;;;;2.58;1.85;;;;;;;;;;5014617;28;20261;-63
2023/02/05 14:41:02;;;;;;;1.77;1.20;;;;;;;;;;5014663;28;20531;-63
2023/02/05 14:43:35;;;;;;;2.38;1.58;;;;;;;;;;5014288;28;20191;-63
2023/02/05 14:46:20;;;;;;;1.52;1.30;;;;;;;;;;5014378;28;20170;-63
2023/02/05 14:48:47;;;;;;;1.75;1.30;;;;;;;;;;5013977;28;20212;-62
2023/02/05 14:51:30;;;;;;;2.55;1.38;;;;;;;;;;5014162;28;20235;-62
2023/02/05 14:54:01;;;;;;;2.40;1.90;;;;;;;;;;5014381;28;20507;-63
2023/02/05 14:56:38;;;;;;;2.30;1.38;;;;;;;;;;5014147;28;20257;-62
2023/02/05 14:59:07;;;;;;;5.57;1.75;;;;;;;;;;5014286;28;20166;-62
2023/02/05 15:01:35;;;;;;;2.85;1.50;;;;;;;;;;5014096;28;20198;-62
2023/02/05 15:04:03;;;;;;;2.40;1.40;;;;;;;;;;5013914;28;20238;-61
2023/02/05 15:06:30;;;;;;;2.83;1.58;;;;;;;;;;5013779;28;20234;-63
2023/02/05 15:09:03;;;;;;;2.15;1.60;;;;;;;;;;5014083;28;20173;-62
2023/02/05 15:11:29;;;;;;;2.30;1.50;;;;;;;;;;5013764;28;20246;-63